Lynden, Washington
Current Conditions -  °F | °C
As of 4:00 PM on Wednesday 26 Nov 2014 (Local Time) from CYXX Reporting Station
Moderate Fog Moderate Fog  
Wind Chill: 46°   Ceiling: 3000
Heat Index: 46°   Visibility: 25mi
Dew Point: 46°   Wind: 0mph
Humidity: 100%   Direction: NA
Pressure: 29.96"   Gusts: NA
Location:  48.94°N, 122.45°W
Report Text: CYXX 270000Z 00000KT 25SM VCFG FEW001 BKN030 OVC070 08/08 A2996 RMK SF1SC7AS1 SF TR SLP146
Loading
Personal Weather Stations






























Interactive Weather Map New forecast layout! Learn more

10-Day Weather Forecast

Advertisements
Track Severe Weather on mobile